Time;durP1;ratioP1;P1;durP2;ratioP2;P2;SDS_P1;SDS_P2;PMS_P1;PMS_P2;Temp;Humidity;BMP_temperature;BMP_pressure;BME280_temperature;BME280_humidity;BME280_pressure;Samples;Min_cycle;Max_cycle;Signal;HPM_P1;HPM_P2
2022/11/23 00:01:16;;;;;;;13.90;4.72;;;;;;;7.40;100.00;99479.63;5003176;28;20026;-75
2022/11/23 00:03:43;;;;;;;12.18;3.83;;;;;;;7.40;100.00;99473.34;4988110;28;20038;-74
2022/11/23 00:06:08;;;;;;;11.38;3.90;;;;;;;7.39;100.00;99477.91;4989317;28;20018;-75
2022/11/23 00:08:33;;;;;;;11.35;4.03;;;;;;;7.40;100.00;99481.47;4989175;28;20100;-75
2022/11/23 00:10:59;;;;;;;15.00;4.30;;;;;;;7.39;100.00;99477.91;4988010;28;20493;-75
2022/11/23 00:13:25;;;;;;;11.95;3.95;;;;;;;7.39;100.00;99474.34;4988190;28;20049;-75
2022/11/23 00:15:50;;;;;;;8.45;3.88;;;;;;;7.38;100.00;99476.19;4989488;28;20403;-75
2022/11/23 00:18:15;;;;;;;14.88;3.63;;;;;;;7.36;100.00;99480.00;4971980;28;20489;-75
2022/11/23 00:20:41;;;;;;;9.02;4.22;;;;;;;7.39;100.00;99486.03;4987889;28;20038;-75
2022/11/23 00:23:08;;;;;;;6.05;3.17;;;;;;;7.39;100.00;99485.16;4987390;28;20069;-75
2022/11/23 00:25:33;;;;;;;7.70;3.55;;;;;;;7.38;100.00;99480.75;4987817;28;20494;-74
2022/11/23 00:27:59;;;;;;;12.48;3.70;;;;;;;7.36;100.00;99488.97;4988637;28;20040;-74
2022/11/23 00:30:24;;;;;;;13.13;3.78;;;;;;;7.35;100.00;99484.56;4990291;28;20514;-74
2022/11/23 00:32:51;;;;;;;9.02;3.08;;;;;;;7.38;100.00;99488.88;4991935;28;20065;-74
2022/11/23 00:35:16;;;;;;;10.48;2.92;;;;;;;7.40;100.00;99495.00;4987298;28;20124;-74
2022/11/23 00:37:42;;;;;;;14.63;3.85;;;;;;;7.38;100.00;99488.88;4988366;28;20042;-74
2022/11/23 00:40:08;;;;;;;12.20;3.42;;;;;;;7.41;100.00;99496.72;5002689;28;20018;-73
2022/11/23 00:42:34;;;;;;;7.72;2.45;;;;;;;7.41;100.00;99499.41;4988554;28;20053;-74
2022/11/23 00:44:59;;;;;;;14.60;3.38;;;;;;;7.39;100.00;99494.16;4987395;28;20141;-73
2022/11/23 00:47:25;;;;;;;12.65;3.47;;;;;;;7.41;100.00;99504.84;4995083;28;20073;-75
2022/11/23 00:49:50;;;;;;;7.53;2.17;;;;;;;7.42;100.00;99501.16;4988691;28;20449;-74
2022/11/23 00:52:16;;;;;;;15.55;2.97;;;;;;;7.43;100.00;99499.31;4970649;28;20038;-75
2022/11/23 00:54:41;;;;;;;10.57;4.18;;;;;;;7.40;100.00;99495.84;4971134;28;20038;-75
2022/11/23 00:57:07;;;;;;;15.07;2.83;;;;;;;7.43;100.00;99504.72;4987428;28;20035;-75
2022/11/23 00:59:32;;;;;;;8.43;2.65;;;;;;;7.41;100.00;99494.91;4987184;28;20080;-75
2022/11/23 01:01:58;;;;;;;13.00;2.60;;;;;;;7.45;100.00;99500.03;4987128;28;20539;-75
2022/11/23 01:04:24;;;;;;;6.68;2.67;;;;;;;7.44;100.00;99501.88;5021660;28;20033;-75
2022/11/23 01:06:55;;;;;;;10.30;2.53;;;;;;;7.45;100.00;99505.44;4988129;28;20105;-75
2022/11/23 01:09:23;;;;;;;11.27;2.58;;;;;;;7.43;100.00;99510.16;4987086;28;20034;-75
2022/11/23 01:11:49;;;;;;;8.32;2.70;;;;;;;7.41;100.00;99502.13;4986080;28;20156;-75
2022/11/23 01:14:16;;;;;;;9.63;3.00;;;;;;;7.40;100.00;99508.53;4987152;28;20061;-74
2022/11/23 01:16:42;;;;;;;7.95;2.72;;;;;;;7.39;100.00;99507.66;5015103;28;20498;-74
2022/11/23 01:19:17;;;;;;;7.20;2.63;;;;;;;7.38;100.00;99505.97;4995724;28;20032;-74
2022/11/23 01:21:46;;;;;;;5.88;2.50;;;;;;;7.39;100.00;99507.66;4988648;28;20445;-75
2022/11/23 01:24:15;;;;;;;15.00;4.05;;;;;;;7.39;100.00;99512.22;5006257;28;20061;-74
2022/11/23 01:26:40;;;;;;;9.30;2.72;;;;;;;7.38;100.00;99511.38;4998003;28;20026;-75
2022/11/23 01:29:06;;;;;;;9.77;2.78;;;;;;;7.35;100.00;99508.03;4989955;28;20026;-73
2022/11/23 01:31:32;;;;;;;8.35;2.20;;;;;;;7.33;100.00;99521.72;4978320;28;20125;-74
2022/11/23 01:33:59;;;;;;;9.23;2.53;;;;;;;7.30;100.00;99504.84;5006172;28;20041;-76
2022/11/23 01:36:32;;;;;;;7.90;2.47;;;;;;;7.29;100.00;99517.53;4983819;28;20038;-73
2022/11/23 01:38:59;;;;;;;7.97;3.10;;;;;;;7.25;100.00;99521.44;4987262;28;20185;-75
2022/11/23 01:41:28;;;;;;;15.70;2.67;;;;;;;7.24;100.00;99524.28;5000847;28;20018;-74
2022/11/23 01:43:54;;;;;;;13.05;2.53;;;;;;;7.24;100.00;99532.41;4987418;28;20038;-75
2022/11/23 01:46:20;;;;;;;13.85;2.45;;;;;;;7.27;100.00;99530.28;4987019;28;20094;-75
2022/11/23 01:48:49;;;;;;;9.07;2.80;;;;;;;7.27;100.00;99537.53;4969793;28;20042;-74
2022/11/23 01:51:19;;;;;;;10.98;2.88;;;;;;;7.30;100.00;99535.47;4985028;28;20027;-75
2022/11/23 01:53:47;;;;;;;11.38;2.30;;;;;;;7.33;100.00;99535.22;4985904;28;20042;-75
2022/11/23 01:56:22;;;;;;;7.90;2.45;;;;;;;7.32;100.00;99533.53;4985537;28;20093;-76
2022/11/23 01:58:51;;;;;;;10.13;2.28;;;;;;;7.35;100.00;99535.09;4985707;28;20084;-75
2022/11/23 02:01:16;;;;;;;7.97;2.65;;;;;;;7.34;100.00;99526.13;5000432;28;20283;-75
2022/11/23 02:03:45;;;;;;;7.68;2.20;;;;;;;7.36;100.00;99532.25;4969705;28;20049;-75
2022/11/23 02:06:15;;;;;;;8.45;2.38;;;;;;;7.37;100.00;99542.13;4996042;28;20173;-74
2022/11/23 02:08:42;;;;;;;11.00;2.60;;;;;;;7.37;100.00;99538.56;4994759;28;20048;-74
2022/11/23 02:11:09;;;;;;;7.78;2.13;;;;;;;7.39;100.00;99547.41;5002386;28;20042;-75
2022/11/23 02:13:34;;;;;;;8.93;2.78;;;;;;;7.39;100.00;99548.25;5002213;28;20042;-74
2022/11/23 02:16:01;;;;;;;10.32;2.42;;;;;;;7.38;100.00;99556.50;5002075;28;20045;-75
2022/11/23 02:18:29;;;;;;;13.32;2.50;;;;;;;7.40;100.00;99554.53;5001693;28;20402;-74
2022/11/23 02:20:58;;;;;;;8.10;2.20;;;;;;;7.39;100.00;99548.25;4994767;28;20034;-74
2022/11/23 02:23:47;;;;;;;9.80;2.33;;;;;;;7.41;100.00;99550.84;4988859;28;20632;-75
2022/11/23 02:26:26;;;;;;;6.97;2.47;;;;;;;7.44;100.00;99547.03;5005244;28;20087;-75
2022/11/23 02:29:07;;;;;;;13.07;2.63;;;;;;;7.46;100.00;99545.06;4973520;28;20414;-74
2022/11/23 02:31:32;;;;;;;14.10;2.25;;;;;;;7.47;100.00;99549.50;4989264;28;20412;-74
2022/11/23 02:33:58;;;;;;;12.63;2.58;;;;;;;7.47;100.00;99557.63;4989030;28;20038;-75
2022/11/23 02:36:40;;;;;;;8.18;1.95;;;;;;;7.47;100.00;99557.63;4990516;28;20133;-74
2022/11/23 02:39:15;;;;;;;12.35;2.20;;;;;;;7.48;100.00;99562.03;4972608;28;20425;-75
2022/11/23 02:41:49;;;;;;;9.55;2.40;;;;;;;7.48;100.00;99562.03;4989022;28;20401;-74
2022/11/23 02:44:43;;;;;;;7.80;2.13;;;;;;;7.48;100.00;99560.19;4988757;28;20038;-75
2022/11/23 02:47:10;;;;;;;4.05;1.65;;;;;;;7.47;100.00;99552.22;4989732;28;20145;-75
2022/11/23 02:49:39;;;;;;;10.57;2.47;;;;;;;7.47;100.00;99561.19;4972912;28;20041;-75
2022/11/23 02:52:05;;;;;;;7.28;2.22;;;;;;;7.48;100.00;99556.63;4989305;28;20042;-75
2022/11/23 02:54:30;;;;;;;14.95;2.92;;;;;;;7.48;100.00;99557.50;4972530;28;20120;-74
2022/11/23 02:56:56;;;;;;;13.18;2.67;;;;;;;7.50;100.00;99562.75;4973468;28;20077;-75
2022/11/23 02:59:22;;;;;;;12.63;3.00;;;;;;;7.48;100.00;99559.34;4988957;28;20030;-75
2022/11/23 03:01:49;;;;;;;10.55;2.50;;;;;;;7.44;100.00;99556.00;4988302;28;20120;-75
2022/11/23 03:04:15;;;;;;;13.68;3.13;;;;;;;7.48;100.00;99560.19;4993042;28;20127;-76
2022/11/23 03:06:41;;;;;;;11.18;2.42;;;;;;;7.50;100.00;99560.91;4989444;28;20041;-75
2022/11/23 03:09:06;;;;;;;8.02;3.42;;;;;;;7.49;100.00;99558.34;4988284;28;20034;-75
2022/11/23 03:11:32;;;;;;;11.05;2.65;;;;;;;7.50;100.00;99573.59;4988079;28;20526;-75
2022/11/23 03:13:58;;;;;;;9.05;2.88;;;;;;;7.49;100.00;99563.75;4989606;28;20104;-75
2022/11/23 03:16:25;;;;;;;16.17;3.05;;;;;;;7.47;100.00;99554.91;4981850;28;20561;-75
2022/11/23 03:18:51;;;;;;;11.88;2.45;;;;;;;7.47;100.00;99563.88;4988618;28;20636;-75
2022/11/23 03:21:17;;;;;;;16.33;2.78;;;;;;;7.49;100.00;99575.44;4999300;28;20114;-75
2022/11/23 03:23:43;;;;;;;10.90;2.28;;;;;;;7.47;100.00;99577.41;4988081;28;20038;-74
2022/11/23 03:26:11;;;;;;;9.95;2.50;;;;;;;7.44;100.00;99574.94;4988250;28;20041;-75
2022/11/23 03:28:41;;;;;;;5.45;2.13;;;;;;;7.44;100.00;99574.09;4972485;28;20124;-74
2022/11/23 03:31:07;;;;;;;8.43;2.30;;;;;;;7.43;100.00;99575.09;4988644;28;20042;-75
2022/11/23 03:33:33;;;;;;;15.52;2.63;;;;;;;7.43;100.00;99573.22;4987138;28;20079;-75
2022/11/23 03:35:58;;;;;;;16.85;2.17;;;;;;;7.40;100.00;99562.66;4987921;28;20039;-75
2022/11/23 03:38:28;;;;;;;8.57;2.80;;;;;;;7.41;100.00;99573.38;4987349;28;20401;-74
2022/11/23 03:40:54;;;;;;;9.25;2.33;;;;;;;7.39;100.00;99569.03;4972261;28;20034;-75
2022/11/23 03:43:22;;;;;;;7.45;1.90;;;;;;;7.38;100.00;99562.78;4987196;28;20370;-74
2022/11/23 03:45:48;;;;;;;8.45;2.60;;;;;;;7.34;100.00;99561.28;4972136;28;20034;-74
2022/11/23 03:48:14;;;;;;;14.50;3.55;;;;;;;7.32;100.00;99568.69;4989792;28;20077;-75
2022/11/23 03:50:39;;;;;;;8.48;2.45;;;;;;;7.30;100.00;99572.47;4988885;28;20034;-74
2022/11/23 03:53:05;;;;;;;12.57;2.60;;;;;;;7.30;100.00;99576.03;5003571;28;20073;-75
2022/11/23 03:55:32;;;;;;;11.75;2.78;;;;;;;7.28;100.00;99564.50;4997986;28;20049;-74
2022/11/23 03:57:58;;;;;;;10.23;2.20;;;;;;;7.27;100.00;99568.16;5002916;28;20486;-75
2022/11/23 04:00:26;;;;;;;6.97;2.05;;;;;;;7.27;100.00;99573.56;4990016;28;20026;-74
2022/11/23 04:02:52;;;;;;;11.90;2.25;;;;;;;7.25;100.00;99578.25;5003850;28;20050;-75
2022/11/23 04:05:35;;;;;;;7.53;2.38;;;;;;;7.25;100.00;99578.25;4988776;28;20516;-75
2022/11/23 04:08:20;;;;;;;11.18;2.22;;;;;;;7.24;100.00;99581.09;4988716;28;20113;-74
2022/11/23 04:10:46;;;;;;;11.93;2.10;;;;;;;7.24;100.00;99579.25;5003774;28;20097;-74
2022/11/23 04:13:15;;;;;;;11.05;2.50;;;;;;;7.25;100.00;99580.97;4988275;28;20068;-75
2022/11/23 04:15:41;;;;;;;5.78;1.92;;;;;;;7.26;100.00;99576.41;4987383;28;20030;-74
2022/11/23 04:18:07;;;;;;;15.07;2.85;;;;;;;7.26;100.00;99569.16;5003020;28;20034;-74
2022/11/23 04:20:33;;;;;;;11.07;2.20;;;;;;;7.29;100.00;99578.88;5002159;28;20038;-75
2022/11/23 04:22:58;;;;;;;9.75;2.10;;;;;;;7.27;100.00;99573.56;4986624;28;20030;-76
2022/11/23 04:25:26;;;;;;;13.60;2.15;;;;;;;7.30;100.00;99573.34;4987747;28;20448;-74
2022/11/23 04:27:51;;;;;;;8.80;2.42;;;;;;;7.30;100.00;99576.03;4988098;28;20049;-76
2022/11/23 04:30:17;;;;;;;9.90;2.05;;;;;;;7.31;100.00;99574.19;4981009;28;20407;-75
2022/11/23 04:32:44;;;;;;;18.88;2.38;;;;;;;7.33;100.00;99577.66;4995682;28;20034;-75
2022/11/23 04:35:10;;;;;;;9.35;2.80;;;;;;;7.32;100.00;99574.09;4988102;28;20066;-74
2022/11/23 04:37:36;;;;;;;13.25;2.33;;;;;;;7.31;100.00;99561.53;4986387;28;20081;-74
2022/11/23 04:40:02;;;;;;;12.35;2.60;;;;;;;7.30;100.00;99570.63;4978024;28;20034;-74
2022/11/23 04:42:38;;;;;;;8.55;2.20;;;;;;;7.29;100.00;99568.06;4977273;28;20046;-74
2022/11/23 04:45:04;;;;;;;16.58;3.08;;;;;;;7.28;100.00;99571.75;4970091;28;20565;-74
2022/11/23 04:47:31;;;;;;;7.78;2.28;;;;;;;7.26;100.00;99571.00;4978397;28;20128;-74
2022/11/23 04:50:00;;;;;;;5.45;2.17;;;;;;;7.24;100.00;99579.25;4986521;28;20029;-75
2022/11/23 04:52:25;;;;;;;11.23;2.60;;;;;;;7.25;100.00;99577.41;4986319;28;20038;-75
2022/11/23 04:54:51;;;;;;;15.20;2.97;;;;;;;7.24;100.00;99573.84;4986651;28;20070;-75
2022/11/23 04:57:16;;;;;;;6.68;1.85;;;;;;;7.21;100.00;99574.06;4997066;28;20034;-75
2022/11/23 04:59:43;;;;;;;14.38;2.70;;;;;;;7.21;99.96;99576.78;5005737;28;20025;-75
2022/11/23 05:02:09;;;;;;;13.88;2.50;;;;;;;7.21;100.00;99567.81;4985354;28;20041;-74
2022/11/23 05:04:41;;;;;;;9.35;2.00;;;;;;;7.19;99.65;99567.94;4986289;28;20121;-74
2022/11/23 05:07:07;;;;;;;12.52;2.03;;;;;;;7.15;99.25;99567.31;4985518;28;20217;-74
2022/11/23 05:09:34;;;;;;;13.75;3.17;;;;;;;7.12;99.61;99570.25;4970399;28;20022;-74
2022/11/23 05:12:19;;;;;;;9.30;2.58;;;;;;;7.11;99.87;99568.53;4987123;28;20670;-74
2022/11/23 05:14:45;;;;;;;7.22;1.83;;;;;;;7.09;99.37;99564.22;4969869;28;20060;-75
2022/11/23 05:17:14;;;;;;;8.60;2.38;;;;;;;7.05;99.41;99565.44;4986317;28;20030;-74
2022/11/23 05:19:40;;;;;;;16.92;2.80;;;;;;;6.99;99.48;99560.50;5002283;28;20034;-75
2022/11/23 05:22:06;;;;;;;21.58;3.88;;;;;;;6.92;99.57;99564.69;4985296;28;20438;-75
2022/11/23 05:24:34;;;;;;;13.40;2.78;;;;;;;6.88;99.20;99572.16;4969938;28;20035;-74
2022/11/23 05:27:13;;;;;;;17.45;3.28;;;;;;;6.83;99.93;99564.41;4985960;28;20038;-75
2022/11/23 05:29:39;;;;;;;9.98;2.25;;;;;;;6.84;99.98;99574.25;4985821;28;20473;-75
2022/11/23 05:32:05;;;;;;;14.93;2.90;;;;;;;6.84;100.00;99568.84;4985622;28;20031;-74
2022/11/23 05:34:31;;;;;;;13.35;3.90;;;;;;;6.87;99.66;99579.41;4982516;28;20153;-74
2022/11/23 05:36:56;;;;;;;10.93;2.10;;;;;;;6.87;99.36;99573.16;4988278;28;20128;-75
2022/11/23 05:39:22;;;;;;;9.15;2.42;;;;;;;6.86;100.00;99575.00;4989807;28;20038;-75
2022/11/23 05:41:50;;;;;;;16.45;2.97;;;;;;;6.88;99.55;99573.03;4988130;28;20033;-74
2022/11/23 05:44:27;;;;;;;15.90;3.10;;;;;;;6.90;99.33;99573.78;5005156;28;20129;-76
2022/11/23 05:46:52;;;;;;;17.05;3.45;;;;;;;6.90;99.74;99575.59;4977846;28;20118;-75
2022/11/23 05:49:18;;;;;;;18.67;3.35;;;;;;;6.87;99.35;99570.44;4989181;28;20069;-74
2022/11/23 05:51:43;;;;;;;12.85;2.90;;;;;;;6.86;99.34;99580.41;4998961;28;20088;-73
2022/11/23 05:54:09;;;;;;;17.27;3.60;;;;;;;6.85;99.62;99577.78;5005068;28;20038;-74
2022/11/23 05:56:39;;;;;;;11.40;3.03;;;;;;;6.79;99.44;99579.13;4994950;28;20026;-74
2022/11/23 05:59:13;;;;;;;15.02;2.88;;;;;;;6.78;99.08;99579.28;4989426;28;20050;-74
2022/11/23 06:01:41;;;;;;;15.73;2.70;;;;;;;6.76;99.29;99578.50;4977895;28;20079;-74
2022/11/23 06:04:08;;;;;;;13.75;2.97;;;;;;;6.72;99.67;99579.75;4998207;28;20076;-75
2022/11/23 06:06:39;;;;;;;11.07;2.90;;;;;;;6.70;99.35;99576.28;4986780;28;20117;-74
2022/11/23 06:09:04;;;;;;;15.25;2.90;;;;;;;6.69;99.76;99582.69;4996334;28;20160;-74
2022/11/23 06:11:32;;;;;;;16.00;3.45;;;;;;;6.65;99.73;99585.59;4989253;28;20373;-74
2022/11/23 06:14:03;;;;;;;12.23;3.15;;;;;;;6.65;99.44;99576.63;4988730;28;20398;-74
2022/11/23 06:16:28;;;;;;;13.68;2.97;;;;;;;6.61;99.41;99576.00;4988901;28;20030;-75
2022/11/23 06:19:08;;;;;;;13.93;3.60;;;;;;;6.64;99.16;99573.09;4989140;28;20112;-75
2022/11/23 06:21:37;;;;;;;19.65;3.67;;;;;;;6.62;99.73;99579.56;5004014;28;20230;-75
2022/11/23 06:24:02;;;;;;;15.32;2.55;;;;;;;6.62;99.95;99584.97;4988906;28;20125;-74
2022/11/23 06:26:29;;;;;;;14.85;2.40;;;;;;;6.68;100.00;99594.47;4985975;28;20162;-75
2022/11/23 06:28:56;;;;;;;14.73;2.90;;;;;;;6.69;100.00;99582.69;5005147;28;20129;-74
2022/11/23 06:31:22;;;;;;;18.27;3.38;;;;;;;6.71;100.00;99586.13;5005802;28;20165;-75
2022/11/23 06:33:47;;;;;;;11.15;2.63;;;;;;;6.69;100.00;99579.97;5006179;28;20069;-75
2022/11/23 06:36:14;;;;;;;10.85;2.75;;;;;;;6.72;100.00;99588.72;4986788;28;20405;-75
2022/11/23 06:38:44;;;;;;;14.40;2.63;;;;;;;6.74;99.89;99589.44;5004568;28;20037;-75
2022/11/23 06:41:13;;;;;;;16.58;3.25;;;;;;;6.77;99.87;99593.78;5005057;28;20034;-75
2022/11/23 06:43:39;;;;;;;12.20;2.50;;;;;;;6.78;100.00;99590.09;4988447;28;20501;-75
2022/11/23 06:46:05;;;;;;;12.65;2.53;;;;;;;6.76;100.00;99587.50;4988929;28;20053;-75
2022/11/23 06:48:32;;;;;;;13.93;2.78;;;;;;;6.76;100.00;99592.91;4988951;28;20397;-74
2022/11/23 06:50:59;;;;;;;18.23;2.97;;;;;;;6.76;100.00;99592.91;4972497;28;20493;-74
2022/11/23 06:53:26;;;;;;;13.30;2.80;;;;;;;6.78;100.00;99598.19;5005230;28;20026;-74
2022/11/23 06:55:58;;;;;;;11.23;3.20;;;;;;;6.78;100.00;99604.47;4989157;28;20177;-76
2022/11/23 06:58:23;;;;;;;14.30;2.75;;;;;;;6.78;100.00;99606.31;4989068;28;20053;-75
2022/11/23 07:00:49;;;;;;;12.45;3.08;;;;;;;6.79;99.94;99610.72;4988700;28;20035;-75
2022/11/23 07:03:23;;;;;;;10.13;3.10;;;;;;;6.79;100.00;99608.88;4972510;28;20038;-75
2022/11/23 07:05:54;;;;;;;11.10;2.38;;;;;;;6.78;100.00;99617.97;5005310;28;20398;-76
2022/11/23 07:08:23;;;;;;;13.32;3.00;;;;;;;6.76;99.98;99619.94;4988797;28;20216;-74
2022/11/23 07:10:49;;;;;;;9.48;2.75;;;;;;;6.71;99.72;99624.81;4988054;28;20400;-77
2022/11/23 07:13:15;;;;;;;14.98;2.58;;;;;;;6.69;99.44;99629.47;4972110;28;20512;-75
2022/11/23 07:15:41;;;;;;;13.80;3.22;;;;;;;6.67;99.54;99633.25;4994745;28;20117;-75
2022/11/23 07:18:10;;;;;;;17.05;2.70;;;;;;;6.64;99.50;99634.38;5000410;28;20054;-74
2022/11/23 07:20:39;;;;;;;14.75;2.60;;;;;;;6.62;99.35;99634.50;4996066;28;20033;-74
2022/11/23 07:23:07;;;;;;;14.18;2.33;;;;;;;6.63;99.26;99638.91;5006748;28;20034;-76
2022/11/23 07:25:35;;;;;;;17.20;3.13;;;;;;;6.61;99.58;99645.41;4988186;28;20495;-74
2022/11/23 07:28:02;;;;;;;12.73;2.42;;;;;;;6.62;99.07;99645.31;4983335;28;20402;-75
2022/11/23 07:30:29;;;;;;;15.52;2.50;;;;;;;6.60;98.87;99655.34;4988375;28;20034;-75
2022/11/23 07:33:01;;;;;;;17.45;2.45;;;;;;;6.58;98.61;99651.06;5001921;28;20026;-76
2022/11/23 07:35:28;;;;;;;16.70;4.43;;;;;;;6.52;98.74;99652.34;4985860;28;20038;-75
2022/11/23 07:37:53;;;;;;;13.00;2.50;;;;;;;6.47;98.56;99653.69;4988016;28;20397;-74
2022/11/23 07:40:18;;;;;;;12.43;2.10;;;;;;;6.41;98.52;99656.84;4978020;28;20034;-74
2022/11/23 07:42:44;;;;;;;13.18;1.88;;;;;;;6.35;98.31;99656.34;4997422;28;20026;-74
2022/11/23 07:45:10;;;;;;;11.77;2.60;;;;;;;6.33;98.48;99657.41;4987908;28;20046;-75
2022/11/23 07:47:38;;;;;;;14.98;3.28;;;;;;;6.31;98.46;99657.53;4971760;28;20041;-74
2022/11/23 07:50:08;;;;;;;8.75;2.35;;;;;;;6.27;98.11;99672.25;4988849;28;20038;-75
2022/11/23 07:52:35;;;;;;;12.40;2.85;;;;;;;6.23;98.77;99673.44;4988911;28;20564;-76
2022/11/23 07:55:01;;;;;;;17.42;2.40;;;;;;;6.21;98.57;99683.50;4971381;28;20506;-75
2022/11/23 07:57:26;;;;;;;14.32;2.58;;;;;;;6.17;98.48;99678.44;4980147;28;20046;-75
2022/11/23 07:59:52;;;;;;;10.43;2.28;;;;;;;6.20;98.45;99683.59;4987666;28;20113;-74
2022/11/23 08:02:17;;;;;;;15.45;2.67;;;;;;;6.17;98.26;99681.13;4987576;28;20393;-75
2022/11/23 08:04:42;;;;;;;9.73;2.22;;;;;;;6.19;97.99;99679.16;4987076;28;20455;-75
2022/11/23 08:07:07;;;;;;;11.73;2.13;;;;;;;6.19;98.31;99681.88;4986432;28;20524;-75
2022/11/23 08:09:33;;;;;;;8.73;2.10;;;;;;;6.19;97.84;99680.03;4987355;28;20454;-75
2022/11/23 08:11:58;;;;;;;13.82;2.55;;;;;;;6.20;97.77;99684.47;4973711;28;20046;-75
2022/11/23 08:14:24;;;;;;;14.43;3.08;;;;;;;6.20;98.27;99684.47;4988730;28;20043;-75
2022/11/23 08:16:50;;;;;;;14.40;3.15;;;;;;;6.22;98.24;99689.75;4972401;28;20038;-75
2022/11/23 08:19:16;;;;;;;10.25;2.70;;;;;;;6.22;97.53;99681.66;4987871;28;20034;-74
2022/11/23 08:21:41;;;;;;;12.30;2.17;;;;;;;6.24;97.83;99688.66;5002054;28;20042;-75
2022/11/23 08:24:07;;;;;;;10.10;3.03;;;;;;;6.24;97.69;99685.94;4988353;28;20509;-74
2022/11/23 08:26:32;;;;;;;15.90;2.65;;;;;;;6.28;97.20;99678.50;4970678;28;20129;-76
2022/11/23 08:28:57;;;;;;;6.15;2.13;;;;;;;6.31;96.41;99684.53;4986813;28;20439;-75
2022/11/23 08:31:23;;;;;;;11.68;2.50;;;;;;;6.33;96.85;99681.72;4985414;28;20034;-75
2022/11/23 08:33:49;;;;;;;17.27;2.10;;;;;;;6.33;97.44;99685.28;4988285;28;20038;-75
2022/11/23 08:36:14;;;;;;;15.43;3.05;;;;;;;6.31;96.66;99692.66;4986663;28;20049;-74
2022/11/23 08:38:40;;;;;;;9.70;2.75;;;;;;;6.30;96.67;99687.38;4987751;28;20022;-75
2022/11/23 08:41:05;;;;;;;9.57;2.42;;;;;;;6.31;97.01;99686.38;4987539;28;20450;-75
2022/11/23 08:43:31;;;;;;;15.70;2.20;;;;;;;6.33;96.88;99692.53;4984744;28;20121;-75
2022/11/23 08:45:57;;;;;;;14.38;3.20;;;;;;;6.38;96.71;99695.75;4988624;28;20026;-74
2022/11/23 08:48:23;;;;;;;10.70;2.20;;;;;;;6.42;96.66;99696.38;4987266;28;20038;-74
2022/11/23 08:50:48;;;;;;;12.25;2.17;;;;;;;6.46;96.04;99697.91;4975186;28;20571;-75
2022/11/23 08:53:14;;;;;;;11.43;2.30;;;;;;;6.50;95.55;99694.00;4985875;28;20397;-75
2022/11/23 08:55:39;;;;;;;14.93;2.83;;;;;;;6.53;95.79;99686.53;4993882;28;20045;-74
2022/11/23 08:58:06;;;;;;;17.58;2.28;;;;;;;6.57;94.48;99692.53;4985823;28;20034;-75
2022/11/23 09:00:31;;;;;;;9.40;2.47;;;;;;;6.60;95.50;99695.88;4988148;28;20042;-74
2022/11/23 09:02:57;;;;;;;10.98;2.65;;;;;;;6.63;95.16;99689.41;4986650;28;20058;-76
2022/11/23 09:05:23;;;;;;;7.70;2.10;;;;;;;6.70;94.74;99687.09;4994533;28;20060;-76
2022/11/23 09:07:48;;;;;;;11.35;2.30;;;;;;;6.71;95.30;99683.41;4986800;28;20474;-75
2022/11/23 09:10:14;;;;;;;7.20;2.25;;;;;;;6.73;95.37;99685.03;4987579;28;20521;-75
2022/11/23 09:12:39;;;;;;;10.20;2.33;;;;;;;6.72;94.75;99677.06;4985995;28;20057;-75
2022/11/23 09:15:05;;;;;;;12.25;3.35;;;;;;;6.76;94.11;99687.50;4985979;28;20042;-75
2022/11/23 09:17:31;;;;;;;14.10;2.10;;;;;;;6.76;94.58;99679.41;4985725;28;20026;-74
2022/11/23 09:19:57;;;;;;;8.95;1.98;;;;;;;6.78;94.56;99679.28;4986116;28;20069;-76
2022/11/23 09:22:22;;;;;;;8.40;2.28;;;;;;;6.84;93.93;99668.84;4987145;28;20213;-75
2022/11/23 09:24:48;;;;;;;12.70;2.60;;;;;;;6.87;93.24;99662.38;4969734;28;20041;-75
2022/11/23 09:27:13;;;;;;;9.38;2.35;;;;;;;6.90;92.69;99668.41;4996202;28;20066;-75
2022/11/23 09:29:38;;;;;;;11.40;2.13;;;;;;;6.92;92.63;99664.72;4992251;28;20125;-74
2022/11/23 09:32:04;;;;;;;8.73;1.65;;;;;;;6.97;92.48;99662.53;4985269;28;20211;-74
2022/11/23 09:34:29;;;;;;;14.38;2.58;;;;;;;7.00;93.07;99663.16;4987536;28;20186;-74
2022/11/23 09:36:57;;;;;;;18.67;3.00;;;;;;;7.02;92.25;99663.03;4985950;28;20038;-74
2022/11/23 09:39:23;;;;;;;14.38;2.22;;;;;;;7.04;92.43;99653.84;4987795;28;20049;-74
2022/11/23 09:42:24;;;;;;;7.40;2.17;;;;;;;7.09;92.70;99651.63;4982875;28;20061;-75
2022/11/23 09:44:52;;;;;;;17.77;3.25;;;;;;;7.14;91.65;99645.88;4986889;28;20370;-74
2022/11/23 09:47:44;;;;;;;12.00;2.67;;;;;;;7.18;91.50;99649.16;4989999;28;20443;-74
2022/11/23 09:50:28;;;;;;;14.45;2.33;;;;;;;7.20;91.26;99642.69;4985666;28;20401;-74
2022/11/23 09:52:54;;;;;;;12.45;2.47;;;;;;;7.17;91.25;99634.78;4986922;28;20038;-75
2022/11/23 09:55:36;;;;;;;9.52;2.15;;;;;;;7.22;89.25;99629.88;4985325;28;20462;-74
2022/11/23 09:58:05;;;;;;;9.57;2.22;;;;;;;7.26;89.41;99627.81;4986206;28;20045;-74
2022/11/23 10:00:42;;;;;;;23.25;2.75;;;;;;;7.27;89.74;99616.84;4985455;28;20049;-74
2022/11/23 10:03:16;;;;;;;14.65;2.65;;;;;;;7.31;89.43;99621.03;4969340;28;20088;-74
2022/11/23 10:05:46;;;;;;;13.13;2.47;;;;;;;7.37;89.48;99614.31;4986563;28;20534;-75
2022/11/23 10:08:32;;;;;;;11.25;2.58;;;;;;;7.38;89.55;99614.19;4968810;28;20092;-75
2022/11/23 10:11:18;;;;;;;9.77;1.95;;;;;;;7.42;90.53;99617.50;4994795;28;20031;-76
2022/11/23 10:17:30;;;;;;;17.58;3.03;;;;;;;7.56;91.04;99608.31;4996674;28;20501;-74
2022/11/23 10:20:19;;;;;;;8.90;2.25;;;;;;;7.63;89.48;99601.41;4987179;28;20058;-75
2022/11/23 10:22:58;;;;;;;8.73;1.73;;;;;;;7.74;90.48;99600.53;4984614;28;20049;-74
2022/11/23 10:25:24;;;;;;;9.45;1.67;;;;;;;7.80;89.33;99602.75;4970102;28;20485;-75
2022/11/23 10:27:55;;;;;;;10.43;3.22;;;;;;;7.88;89.22;99608.38;4986204;28;20418;-74
2022/11/23 10:30:21;;;;;;;9.38;1.60;;;;;;;7.95;88.86;99604.22;4987224;28;20042;-74
2022/11/23 10:32:54;;;;;;;14.90;2.10;;;;;;;8.04;87.03;99605.31;4993261;28;20368;-74
2022/11/23 10:35:33;;;;;;;6.00;1.70;;;;;;;8.13;87.84;99604.56;4986597;28;20189;-75
2022/11/23 10:38:12;;;;;;;6.68;1.55;;;;;;;8.26;87.52;99607.13;4985995;28;20053;-75
2022/11/23 10:41:08;;;;;;;8.70;1.75;;;;;;;8.35;87.99;99604.50;4986731;28;20057;-74
2022/11/23 10:43:40;;;;;;;6.13;2.03;;;;;;;8.38;85.68;99596.13;4987516;28;20050;-74
2022/11/23 10:46:41;;;;;;;7.00;1.58;;;;;;;8.50;87.72;99596.13;4990119;28;20041;-74
2022/11/23 10:49:12;;;;;;;7.03;1.60;;;;;;;8.59;85.51;99598.91;4987654;28;20034;-74
2022/11/23 10:51:38;;;;;;;12.10;2.17;;;;;;;8.61;83.59;99593.34;4986564;28;20458;-74
2022/11/23 10:54:05;;;;;;;7.50;2.22;;;;;;;8.66;83.92;99585.69;5009336;28;20074;-73
2022/11/23 10:56:32;;;;;;;7.35;1.70;;;;;;;8.73;85.08;99581.47;5005824;28;20060;-74
2022/11/23 10:58:58;;;;;;;15.43;2.60;;;;;;;8.81;84.04;99597.97;4988325;28;20038;-75
2022/11/23 11:01:25;;;;;;;7.10;1.70;;;;;;;8.85;84.34;99585.81;4988876;28;20041;-74
2022/11/23 11:03:53;;;;;;;5.57;2.17;;;;;;;8.98;85.38;99576.66;4988414;28;20437;-74
2022/11/23 11:06:23;;;;;;;8.00;1.80;;;;;;;9.09;83.83;99573.84;4988153;28;20450;-74
2022/11/23 11:09:00;;;;;;;3.22;1.45;;;;;;;9.15;82.10;99574.19;4988150;28;20048;-74
2022/11/23 11:11:31;;;;;;;14.88;1.98;;;;;;;9.11;82.16;99564.59;4989716;28;20421;-75
2022/11/23 11:14:02;;;;;;;13.25;1.58;;;;;;;9.15;82.41;99562.50;4988502;28;20434;-74
2022/11/23 11:16:36;;;;;;;8.82;2.30;;;;;;;9.19;81.86;99562.09;4989927;28;20047;-75
2022/11/23 11:19:24;;;;;;;4.07;1.30;;;;;;;9.23;82.09;99559.94;4988054;28;20494;-74
2022/11/23 11:21:49;;;;;;;9.13;2.58;;;;;;;9.18;79.32;99556.78;4988367;28;20031;-74
2022/11/23 11:24:19;;;;;;;10.75;2.25;;;;;;;9.17;81.67;99564.06;4988343;28;20470;-73
2022/11/23 11:27:16;;;;;;;9.98;2.17;;;;;;;9.20;82.86;99549.38;4971392;28;20078;-75
2022/11/23 11:29:44;;;;;;;10.13;1.40;;;;;;;9.28;80.66;99549.56;4980394;28;20140;-74
2022/11/23 11:32:33;;;;;;;3.80;1.35;;;;;;;9.35;83.39;99556.16;4989059;28;20441;-75
2022/11/23 11:35:30;;;;;;;4.15;1.40;;;;;;;9.39;80.48;99537.75;4988059;28;20484;-74
2022/11/23 11:38:01;;;;;;;9.63;1.48;;;;;;;9.39;81.38;99538.63;4988972;28;20061;-74
2022/11/23 11:40:32;;;;;;;16.35;2.05;;;;;;;9.38;80.72;99534.19;4972368;28;20069;-73
2022/11/23 11:43:10;;;;;;;10.23;2.20;;;;;;;9.40;80.59;99525.91;4987148;28;20117;-75